createdAt,value
2022-11-05T00:00:17.609Z,10.07
2022-11-05T00:03:40.487Z,10.20
2022-11-05T00:07:03.401Z,10.70
2022-11-05T00:10:15.828Z,8.75
2022-11-05T00:13:38.644Z,9.18
2022-11-05T00:16:45.856Z,8.80
2022-11-05T00:19:50.490Z,10.07
2022-11-05T00:23:23.433Z,8.38
2022-11-05T00:26:27.717Z,9.15
2022-11-05T00:29:31.976Z,9.57
2022-11-05T00:32:36.427Z,10.60
2022-11-05T00:35:40.756Z,9.05
2022-11-05T00:38:46.240Z,8.57
2022-11-05T00:45:15.005Z,8.23
2022-11-05T00:48:38.183Z,7.63
2022-11-05T00:51:42.415Z,10.88
2022-11-05T00:54:46.950Z,14.60
2022-11-05T00:57:52.288Z,11.18
2022-11-05T01:00:58.421Z,10.02
2022-11-05T01:04:02.889Z,8.90
2022-11-05T01:07:07.119Z,11.73
2022-11-05T01:10:11.645Z,9.40
2022-11-05T01:13:25.962Z,13.00
2022-11-05T01:16:30.889Z,11.55
2022-11-05T01:19:35.584Z,9.00
2022-11-05T01:22:40.039Z,11.45
2022-11-05T01:25:45.600Z,11.48
2022-11-05T01:28:57.858Z,9.07
2022-11-05T01:32:02.434Z,10.60
2022-11-05T01:35:09.719Z,12.48
2022-11-05T01:38:13.869Z,10.55
2022-11-05T01:41:18.345Z,10.38
2022-11-05T01:45:07.304Z,9.68
2022-11-05T01:48:22.753Z,9.00
2022-11-05T01:51:29.379Z,8.97
2022-11-05T01:54:36.364Z,10.50
2022-11-05T01:57:40.686Z,10.52
2022-11-05T02:00:45.290Z,9.45
2022-11-05T02:03:51.920Z,9.63
2022-11-05T02:06:56.387Z,9.80
2022-11-05T02:10:10.561Z,9.88
2022-11-05T02:13:15.595Z,8.25
2022-11-05T02:16:41.722Z,9.98
2022-11-05T02:20:05.284Z,9.60
2022-11-05T02:23:18.534Z,11.60
2022-11-05T02:26:37.604Z,9.85
2022-11-05T02:30:21.675Z,9.55
2022-11-05T02:34:03.338Z,11.10
2022-11-05T02:37:13.651Z,12.32
2022-11-05T02:40:27.045Z,13.52
2022-11-05T02:43:52.989Z,11.38
2022-11-05T02:47:11.854Z,13.32
2022-11-05T02:50:50.352Z,15.52
2022-11-05T02:54:10.179Z,34.13
2022-11-05T02:57:14.663Z,17.67
2022-11-05T03:00:47.356Z,14.15
2022-11-05T03:04:01.374Z,16.83
2022-11-05T03:07:18.006Z,13.35
2022-11-05T03:10:27.990Z,11.70
2022-11-05T03:13:53.373Z,11.63
2022-11-05T03:17:21.602Z,17.48
2022-11-05T03:20:47.979Z,21.42
2022-11-05T03:23:52.038Z,14.05
2022-11-05T03:27:05.784Z,13.35
2022-11-05T03:30:13.149Z,12.02
2022-11-05T03:33:22.577Z,13.85
2022-11-05T03:36:58.053Z,13.40
2022-11-05T03:40:05.068Z,12.50
2022-11-05T03:43:10.615Z,12.65
2022-11-05T03:50:06.121Z,12.52
2022-11-05T03:53:22.117Z,11.63
2022-11-05T03:56:41.912Z,12.38
2022-11-05T03:59:49.720Z,13.05
2022-11-05T04:02:57.006Z,12.40
2022-11-05T04:06:21.658Z,13.63
2022-11-05T04:09:44.859Z,13.77
2022-11-05T04:13:07.550Z,13.55
2022-11-05T04:16:30.700Z,14.35
2022-11-05T04:19:54.748Z,11.93
2022-11-05T04:23:25.983Z,12.90
2022-11-05T04:26:30.915Z,12.77
2022-11-05T04:29:53.625Z,11.55
2022-11-05T04:33:04.420Z,11.20
2022-11-05T04:36:09.096Z,10.40
2022-11-05T04:39:13.434Z,10.95
2022-11-05T04:42:18.017Z,10.00
2022-11-05T04:45:23.241Z,12.05
2022-11-05T04:48:29.921Z,11.80
2022-11-05T04:51:34.345Z,13.27
2022-11-05T04:54:40.276Z,13.25
2022-11-05T05:00:51.225Z,12.75
2022-11-05T05:03:56.949Z,14.15
2022-11-05T05:07:03.417Z,15.00
2022-11-05T05:10:09.626Z,13.70
2022-11-05T05:13:14.176Z,16.48
2022-11-05T05:16:27.542Z,12.85
2022-11-05T05:19:51.917Z,14.20
2022-11-05T05:22:56.732Z,13.38
2022-11-05T05:26:01.571Z,14.82
2022-11-05T05:29:07.148Z,14.13
2022-11-05T05:32:11.781Z,13.85
2022-11-05T05:35:16.543Z,14.45
2022-11-05T05:38:21.228Z,15.60
2022-11-05T05:41:25.952Z,14.95
2022-11-05T05:44:30.470Z,14.88
2022-11-05T05:47:34.672Z,14.88
2022-11-05T05:50:39.371Z,11.30
2022-11-05T05:53:47.442Z,16.13
2022-11-05T05:56:51.594Z,15.77
2022-11-05T05:59:56.041Z,15.07
2022-11-05T06:03:00.961Z,16.25
2022-11-05T06:06:19.794Z,15.33
2022-11-05T06:09:24.451Z,15.32
2022-11-05T06:12:31.287Z,15.82
2022-11-05T06:15:36.326Z,20.08
2022-11-05T06:18:41.209Z,18.47
2022-11-05T06:21:45.653Z,19.88
2022-11-05T06:24:50.026Z,17.30
2022-11-05T06:27:55.307Z,17.67
2022-11-05T06:30:59.766Z,18.88
2022-11-05T06:34:04.093Z,17.17
2022-11-05T06:37:08.655Z,18.35
2022-11-05T06:40:13.215Z,17.80
2022-11-05T06:43:18.395Z,16.92
2022-11-05T06:46:22.808Z,18.37
2022-11-05T06:49:27.619Z,18.00
2022-11-05T06:52:34.874Z,17.55
2022-11-05T06:55:43.142Z,18.65
2022-11-05T06:58:47.696Z,18.10
2022-11-05T07:01:53.378Z,17.55
2022-11-05T07:08:02.550Z,18.23
2022-11-05T07:11:07.783Z,18.25
2022-11-05T07:14:12.593Z,17.35
2022-11-05T07:17:19.504Z,18.63
2022-11-05T07:20:23.897Z,19.30
2022-11-05T07:23:28.478Z,18.95
2022-11-05T07:26:34.674Z,17.50
2022-11-05T07:29:39.271Z,17.40
2022-11-05T07:32:43.776Z,18.17
2022-11-05T07:35:48.565Z,20.48
2022-11-05T07:38:58.897Z,19.95
2022-11-05T07:42:06.505Z,22.08
2022-11-05T07:45:11.989Z,20.75
2022-11-05T07:48:16.430Z,20.70
2022-11-05T07:51:20.933Z,20.73
2022-11-05T07:54:27.328Z,24.75
2022-11-05T07:57:31.607Z,27.17
2022-11-05T08:00:36.368Z,29.05
2022-11-05T08:03:42.414Z,26.43
2022-11-05T08:06:47.123Z,50.88
2022-11-05T08:09:53.207Z,36.22
2022-11-05T08:12:59.855Z,39.10
2022-11-05T08:16:06.929Z,45.13
2022-11-05T08:19:11.394Z,40.55
2022-11-05T08:22:16.231Z,21.45
2022-11-05T08:25:20.744Z,27.30
2022-11-05T08:28:28.834Z,23.55
2022-11-05T08:31:37.853Z,26.70
2022-11-05T08:34:42.053Z,30.02
2022-11-05T08:37:46.829Z,28.02
2022-11-05T08:40:58.533Z,26.73
2022-11-05T08:44:07.301Z,25.70
2022-11-05T08:47:12.791Z,22.02
2022-11-05T08:50:17.334Z,25.90
2022-11-05T08:53:22.388Z,25.38
2022-11-05T08:56:27.054Z,20.97
2022-11-05T08:59:32.253Z,21.92
2022-11-05T09:02:36.788Z,30.70
2022-11-05T09:05:43.777Z,30.52
2022-11-05T09:08:48.286Z,26.48
2022-11-05T09:15:17.429Z,20.00
2022-11-05T09:18:22.128Z,16.80
2022-11-05T09:21:26.618Z,17.05
2022-11-05T09:24:30.834Z,15.50
2022-11-05T09:27:36.591Z,17.08
2022-11-05T09:30:46.519Z,16.45
2022-11-05T09:33:51.015Z,15.35
2022-11-05T09:36:55.878Z,16.23
2022-11-05T09:40:00.265Z,15.57
2022-11-05T09:43:05.815Z,15.10
2022-11-05T09:46:21.377Z,20.55
2022-11-05T09:49:36.289Z,34.00
2022-11-05T09:52:41.226Z,24.85
2022-11-05T09:56:13.389Z,19.50
2022-11-05T09:59:27.015Z,17.15
2022-11-05T10:02:39.066Z,18.92
2022-11-05T10:05:44.333Z,18.00
2022-11-05T10:09:01.874Z,17.15
2022-11-05T10:12:18.614Z,18.50
2022-11-05T10:15:29.521Z,16.27
2022-11-05T10:18:40.529Z,17.25
2022-11-05T10:22:06.162Z,17.67
2022-11-05T10:25:22.202Z,15.10
2022-11-05T10:28:29.960Z,17.48
2022-11-05T10:31:38.451Z,21.23
2022-11-05T10:34:44.280Z,20.48
2022-11-05T10:41:05.639Z,22.13
2022-11-05T10:44:42.718Z,23.42
2022-11-05T10:48:07.196Z,24.13
2022-11-05T10:51:11.865Z,24.55
2022-11-05T10:54:24.507Z,35.83
2022-11-05T10:57:38.141Z,34.90
2022-11-05T11:01:02.364Z,54.35
2022-11-05T11:04:24.316Z,46.60
2022-11-05T11:07:29.005Z,44.20
2022-11-05T11:10:41.778Z,44.10
2022-11-05T11:14:14.438Z,50.38
2022-11-05T11:17:27.440Z,64.85
2022-11-05T11:20:33.589Z,56.60
2022-11-05T11:23:41.050Z,57.33
2022-11-05T11:26:45.252Z,55.13
2022-11-05T11:30:01.870Z,54.75
2022-11-05T11:33:10.543Z,54.53
2022-11-05T11:36:17.933Z,34.90
2022-11-05T11:39:29.705Z,50.95
2022-11-05T11:42:42.136Z,30.77
2022-11-05T11:46:02.144Z,37.15
2022-11-05T11:49:32.618Z,38.17
2022-11-05T11:52:38.818Z,19.85
2022-11-05T11:55:59.880Z,12.30
2022-11-05T11:59:18.386Z,13.32
2022-11-05T12:03:20.181Z,10.82
2022-11-05T12:06:52.236Z,11.15
2022-11-05T12:10:02.194Z,10.52
2022-11-05T12:13:22.213Z,11.35
2022-11-05T12:16:32.290Z,10.68
2022-11-05T12:19:49.123Z,9.25
2022-11-05T12:23:38.190Z,15.20
2022-11-05T12:26:57.486Z,10.32
2022-11-05T12:30:24.125Z,11.60
2022-11-05T12:33:53.502Z,13.07
2022-11-05T12:37:15.888Z,14.15
2022-11-05T12:40:29.410Z,12.40
2022-11-05T12:43:39.294Z,14.30
2022-11-05T12:47:11.228Z,16.10
2022-11-05T12:50:18.453Z,14.13
2022-11-05T12:53:28.656Z,13.27
2022-11-05T12:56:39.908Z,15.85
2022-11-05T13:00:03.124Z,12.43
2022-11-05T13:03:28.555Z,11.55
2022-11-05T13:06:42.018Z,12.30
2022-11-05T13:09:49.417Z,11.80
2022-11-05T13:13:14.877Z,9.20
2022-11-05T13:16:39.678Z,12.50
2022-11-05T13:20:02.326Z,15.38
2022-11-05T13:23:27.175Z,18.58
2022-11-05T13:26:40.133Z,18.88
2022-11-05T13:29:55.916Z,21.67
2022-11-05T13:33:15.151Z,26.38
2022-11-05T13:36:56.914Z,16.77
2022-11-05T13:40:07.612Z,14.60
2022-11-05T13:43:42.043Z,16.17
2022-11-05T13:47:14.889Z,20.98
2022-11-05T13:50:31.302Z,18.70
2022-11-05T13:54:07.429Z,20.13
2022-11-05T13:57:24.212Z,18.23
2022-11-05T14:00:34.084Z,17.73
2022-11-05T14:03:45.819Z,20.83
2022-11-05T14:06:50.219Z,22.67
2022-11-05T14:10:06.923Z,25.98
2022-11-05T14:13:19.869Z,29.27
2022-11-05T14:16:27.662Z,32.65
2022-11-05T14:19:50.047Z,34.50
2022-11-05T14:22:54.962Z,31.52
2022-11-05T14:26:14.584Z,35.22
2022-11-05T14:29:24.400Z,38.80
2022-11-05T14:32:44.673Z,33.55
2022-11-05T14:35:49.288Z,33.45
2022-11-05T14:39:01.413Z,27.75
2022-11-05T14:42:31.712Z,30.45
2022-11-05T14:45:43.319Z,27.40
2022-11-05T14:49:09.780Z,29.88
2022-11-05T14:55:39.897Z,29.15
2022-11-05T14:58:46.152Z,26.33
2022-11-05T15:01:50.924Z,30.45
2022-11-05T15:05:35.854Z,26.05
2022-11-05T15:09:17.105Z,24.40
2022-11-05T15:12:42.757Z,20.35
2022-11-05T15:15:51.584Z,21.63
2022-11-05T15:18:57.622Z,22.83
2022-11-05T15:22:08.199Z,23.30
2022-11-05T15:25:52.973Z,22.15
2022-11-05T15:28:58.809Z,20.45
2022-11-05T15:32:03.907Z,15.82
2022-11-05T15:35:28.003Z,17.63
2022-11-05T15:38:35.135Z,15.73
2022-11-05T15:41:39.947Z,18.15
2022-11-05T15:45:20.401Z,16.08
2022-11-05T15:48:24.711Z,17.90
2022-11-05T15:51:30.610Z,16.45
2022-11-05T15:54:35.001Z,15.93
2022-11-05T15:57:40.701Z,14.80
2022-11-05T16:03:55.193Z,10.15
2022-11-05T16:07:07.894Z,10.52
2022-11-05T16:10:25.572Z,18.17
2022-11-05T16:13:33.149Z,26.77
2022-11-05T16:16:38.989Z,20.17
2022-11-05T16:19:43.917Z,19.98
2022-11-05T16:22:50.389Z,22.45
2022-11-05T16:25:54.820Z,21.23
2022-11-05T16:29:01.488Z,18.40
2022-11-05T16:32:18.038Z,19.23
2022-11-05T16:35:25.337Z,17.27
2022-11-05T16:38:30.119Z,15.73
2022-11-05T16:41:43.758Z,5.47
2022-11-05T16:44:48.001Z,10.95
2022-11-05T16:50:58.500Z,15.63
2022-11-05T16:54:02.759Z,14.07
2022-11-05T16:57:09.267Z,13.43
2022-11-05T17:00:20.607Z,12.13
2022-11-05T17:03:25.046Z,11.10
2022-11-05T17:06:29.623Z,9.68
2022-11-05T17:09:35.042Z,11.77
2022-11-05T17:12:39.870Z,11.65
2022-11-05T17:15:46.452Z,12.57
2022-11-05T17:18:50.770Z,11.23
2022-11-05T17:21:54.944Z,12.18
2022-11-05T17:24:59.290Z,11.75
2022-11-05T17:28:04.004Z,12.15
2022-11-05T17:31:10.690Z,12.25
2022-11-05T17:34:14.990Z,11.68
2022-11-05T17:37:19.315Z,11.43
2022-11-05T17:40:24.908Z,11.13
2022-11-05T17:46:33.663Z,11.07
2022-11-05T17:49:38.288Z,11.45
2022-11-05T17:52:43.025Z,10.80
2022-11-05T17:55:48.141Z,11.73
2022-11-05T17:58:52.518Z,12.32
2022-11-05T18:01:57.072Z,13.25
2022-11-05T18:05:01.568Z,16.13
2022-11-05T18:08:08.298Z,23.15
2022-11-05T18:11:12.833Z,22.52
2022-11-05T18:14:22.817Z,16.80
2022-11-05T18:17:28.566Z,15.52
2022-11-05T18:20:32.992Z,16.67
2022-11-05T18:23:37.328Z,11.00
2022-11-05T18:26:41.438Z,11.75
2022-11-05T18:29:46.961Z,10.75
2022-11-05T18:32:51.967Z,7.47
2022-11-05T18:35:56.737Z,8.68
2022-11-05T18:39:02.711Z,9.20
2022-11-05T18:42:07.048Z,11.00
2022-11-05T18:45:13.124Z,10.75
2022-11-05T18:48:17.539Z,11.00
2022-11-05T18:51:21.884Z,9.55
2022-11-05T18:54:26.143Z,10.85
2022-11-05T18:57:30.858Z,10.43
2022-11-05T19:00:35.301Z,11.90
2022-11-05T19:03:40.354Z,11.65
2022-11-05T19:06:44.710Z,11.20
2022-11-05T19:09:48.899Z,10.73
2022-11-05T19:12:54.104Z,11.02
2022-11-05T19:15:58.489Z,10.57
2022-11-05T19:19:05.523Z,11.27
2022-11-05T19:22:11.325Z,9.75
2022-11-05T19:25:15.679Z,11.90
2022-11-05T19:28:21.503Z,10.65
2022-11-05T19:31:25.915Z,13.05
2022-11-05T19:34:30.221Z,14.07
2022-11-05T19:37:34.670Z,11.45
2022-11-05T19:40:39.449Z,13.13
2022-11-05T19:43:44.115Z,13.13
2022-11-05T19:46:48.615Z,12.52
2022-11-05T19:49:52.748Z,12.43
2022-11-05T19:52:57.088Z,10.77
2022-11-05T19:56:06.487Z,13.00
2022-11-05T19:59:13.120Z,10.60
2022-11-05T20:02:18.226Z,10.23
2022-11-05T20:05:22.815Z,9.65
2022-11-05T20:08:28.192Z,10.38
2022-11-05T20:11:33.005Z,10.95
2022-11-05T20:14:37.624Z,9.60
2022-11-05T20:17:42.530Z,10.87
2022-11-05T20:20:48.344Z,10.70
2022-11-05T20:23:52.855Z,12.45
2022-11-05T20:26:58.127Z,12.90
2022-11-05T20:30:02.436Z,16.85
2022-11-05T20:33:07.572Z,15.30
2022-11-05T20:36:17.934Z,15.25
2022-11-05T20:39:25.095Z,13.25
2022-11-05T20:42:29.475Z,11.23
2022-11-05T20:45:33.739Z,11.10
2022-11-05T20:48:38.246Z,13.05
2022-11-05T20:51:42.909Z,11.70
2022-11-05T20:54:47.370Z,10.65
2022-11-05T20:57:52.135Z,12.18
2022-11-05T21:00:57.964Z,9.05
2022-11-05T21:04:03.645Z,8.93
2022-11-05T21:07:08.034Z,8.20
2022-11-05T21:10:12.750Z,7.35
2022-11-05T21:13:17.178Z,6.25
2022-11-05T21:16:21.710Z,10.15
2022-11-05T21:19:26.238Z,9.17
2022-11-05T21:22:30.633Z,9.50
2022-11-05T21:25:35.180Z,8.63
2022-11-05T21:28:41.043Z,8.70
2022-11-05T21:31:46.906Z,10.70
2022-11-05T21:34:51.164Z,11.90
2022-11-05T21:37:55.567Z,11.82
2022-11-05T21:41:03.721Z,10.82
2022-11-05T21:44:07.970Z,11.30
2022-11-05T21:47:12.430Z,8.18
2022-11-05T21:50:21.615Z,7.72
2022-11-05T21:53:45.198Z,7.65
2022-11-05T21:57:10.775Z,8.80
2022-11-05T22:00:15.608Z,7.90
2022-11-05T22:03:21.135Z,10.60
2022-11-05T22:09:30.354Z,14.20
2022-11-05T22:12:34.685Z,14.07
2022-11-05T22:15:38.918Z,17.10
2022-11-05T22:18:43.225Z,15.43
2022-11-05T22:21:47.912Z,15.75
2022-11-05T22:24:52.766Z,19.85
2022-11-05T22:27:57.260Z,16.98
2022-11-05T22:31:01.514Z,23.17
2022-11-05T22:34:07.773Z,19.35
2022-11-05T22:37:14.456Z,25.20
2022-11-05T22:40:22.232Z,21.83
2022-11-05T22:43:28.353Z,31.55
2022-11-05T22:46:33.293Z,33.35
2022-11-05T22:49:37.884Z,43.83
2022-11-05T22:52:42.101Z,38.78
2022-11-05T22:55:46.651Z,41.15
2022-11-05T22:58:51.704Z,47.17
2022-11-05T23:01:56.370Z,41.35
2022-11-05T23:05:00.767Z,23.27
2022-11-05T23:08:25.325Z,29.13
2022-11-05T23:11:41.678Z,21.85
2022-11-05T23:14:46.103Z,22.95
2022-11-05T23:18:08.783Z,26.35
2022-11-05T23:21:31.174Z,40.25
2022-11-05T23:24:35.848Z,30.63
2022-11-05T23:27:42.037Z,26.42
2022-11-05T23:31:05.253Z,26.70
2022-11-05T23:34:09.385Z,26.10
2022-11-05T23:37:32.389Z,35.90
2022-11-05T23:40:56.696Z,27.52
2022-11-05T23:44:39.669Z,25.25
2022-11-05T23:48:02.374Z,28.00
2022-11-05T23:51:12.282Z,30.80
2022-11-05T23:54:16.659Z,25.17
2022-11-05T23:57:20.855Z,26.88
